Terminal Aerodrome Forecast
Issued by NWS Blacksburg, VA

Home | Current Version | Previous Version | Text Only | Print | Product List | Glossary On
Versions: 1 2 3 4 5 6 7 8 9 10 11 12 13 14 15 16 17 18 19 20 21 22 23 24 25 26 27 28 29 30 31 32 33 34
000
FTUS41 KRNK 200017 AAA
TAFROA
TAF AMD
KROA 200017Z 2000/2024 33003KT P6SM SCT009 OVC025
     FM200800 00000KT 5SM BR SCT007 OVC010
     FM201000 09003KT 2SM BR OVC007
     FM201300 00000KT P6SM BKN012
     FM201500 15004KT P6SM SCT035=

USA.gov is the U.S. government's official web portal to all federal, state and local government web resources and services.